עמוד ראשי
METAR-TAF:

METAR-TAF

שדות תעופה :

Campbeltown, סקוטלנד

קו רוחב: 55-26-14N, קו אורך: 005-41-11W, גובה: 13מטר

תצפית מזג אוויר נוכחית

הדו"ח נערך לפני 40דקות, בשעה 10:50 UTC
רוח 4קשר מכיוון מערב/צפון-מערב
טמפרטורת 14 צלסיוס
לחות 94%
לחץ 1019 hPa
ראות 10 קילומטר או יותר
מעט עננים בגובה 700רגל
עננים בינוניים בגובה 3700רגל

METAR: EGEC 251050Z 30004KT 9999 FEW007 BKN037 14/13 Q1019

זמן: 12:30 (11:30 UTC)

תחזית

הדו"ח נערך לפני 3 שעות ו 28דקות, בשעה 08:02 UTC
תחזית בתוקף מ 25 ב 09 UTC עד 25 ב 18 UTC
רוח 9קשר מכיוון צפון-מערב
ראות 10 קילומטר או יותר
עננים בינוניים בגובה 300רגל
יעשה מ
25 ב 09 UTC עד 25 ב 12 UTC
עננים פזורים בגובה 1000רגל
הסתברות 30% :
זמנית מ -
25 ב 09 UTC עד 25 ב 10 UTC
ראות: 4000מטר
אד,

TAF: EGEC 250802Z 2509/2518 32009KT 9999 BKN003 BECMG 2509/2512 SCT010 PROB30 TEMPO 2509/2510 4000 BR

תצפיות ותחזיות מזג אוויר לגבי יותר מ- 4,000 שדות תעופה ברחבי העולם. דוחות METAR ו- TAF.

התחנות הזמינות מסומנות בנקודות צהובות ואדומות על גבי המפה.

העבר את העכבר לנקודה הצבעונית על מנת לראות את שם התחנה.

לאחר מכן, לחץ כדי לראות את תוכן ואת תחזיות מזג האוויר.

כדי לשנות את המפה: לחץ על הכפתורים הירוקים עם הפלוס השחור כדי להתקרב; על הכפתור הירוק עם המקף כדי להתרחק; או בחיצים הירוקים למפות סמוכות.


METAR-TAF: